Time;durP1;ratioP1;P1;durP2;ratioP2;P2;SDS_P1;SDS_P2;PMS_P1;PMS_P2;Temp;Humidity;BMP_temperature;BMP_pressure;BME280_temperature;BME280_humidity;BME280_pressure;Samples;Min_cycle;Max_cycle;Signal;HPM_P1;HPM_P2
2024/03/30 00:00:36;;;;;;;;;;;;;;;15.46;48.32;94731.38;4166110;28;19921;-66
2024/03/30 00:02:37;;;;;;;;;;;;;;;15.47;48.37;94739.09;4173051;28;20344;-67
2024/03/30 00:04:37;;;;;;;;;;;;;;;15.45;48.25;94730.56;4163853;28;19982;-66
2024/03/30 00:06:38;;;;;;;;;;;;;;;15.46;48.17;94734.81;4169182;28;19933;-66
2024/03/30 00:08:38;;;;;;;;;;;;;;;15.44;48.12;94730.75;4170040;28;19979;-67
2024/03/30 00:10:40;;;;;;;;;;;;;;;15.44;48.17;94731.53;4170411;28;19959;-68
2024/03/30 00:12:41;;;;;;;;;;;;;;;15.44;47.98;94731.53;4172149;28;19924;-65
2024/03/30 00:14:42;;;;;;;;;;;;;;;15.44;47.81;94728.09;4176752;28;19928;-67
2024/03/30 00:16:43;;;;;;;;;;;;;;;15.45;47.74;94727.91;4168614;28;19924;-66
2024/03/30 00:18:45;;;;;;;;;;;;;;;15.45;47.44;94727.91;4167744;28;19929;-67
2024/03/30 00:20:45;;;;;;;;;;;;;;;15.43;47.33;94734.41;4148508;28;19987;-66
2024/03/30 00:22:46;;;;;;;;;;;;;;;15.41;47.57;94726.66;4167546;28;20008;-68
2024/03/30 00:24:49;;;;;;;;;;;;;;;15.38;48.27;94732.31;4174555;28;19921;-67
2024/03/30 00:26:49;;;;;;;;;;;;;;;15.35;48.75;94732.69;4167469;28;19921;-66
2024/03/30 00:28:50;;;;;;;;;;;;;;;15.31;48.84;94734.06;4172845;28;19967;-66
2024/03/30 00:30:51;;;;;;;;;;;;;;;15.25;49.07;94727.72;4170984;28;20644;-68
2024/03/30 00:32:52;;;;;;;;;;;;;;;15.20;49.33;94724.81;4174954;28;19924;-66
2024/03/30 00:34:52;;;;;;;;;;;;;;;15.17;49.47;94727.84;4173439;28;19921;-65
2024/03/30 00:36:53;;;;;;;;;;;;;;;15.14;49.55;94734.31;4169568;28;19990;-65
2024/03/30 00:38:54;;;;;;;;;;;;;;;15.10;49.84;94726.94;4171609;28;19964;-66
2024/03/30 00:40:54;;;;;;;;;;;;;;;15.08;50.15;94740.31;4166351;28;19941;-66
2024/03/30 00:42:55;;;;;;;;;;;;;;;15.05;50.16;94735.41;4152599;28;20000;-65
2024/03/30 00:44:55;;;;;;;;;;;;;;;15.01;50.06;94731.50;4174498;28;19927;-67
2024/03/30 00:46:56;;;;;;;;;;;;;;;14.95;50.31;94729.63;4154062;28;19926;-66
2024/03/30 00:48:57;;;;;;;;;;;;;;;14.91;50.21;94726.53;4171612;28;20282;-65
2024/03/30 00:50:57;;;;;;;;;;;;;;;14.84;50.35;94725.66;4177507;28;20067;-66
2024/03/30 00:52:58;;;;;;;;;;;;;;;14.81;50.26;94722.56;4166858;28;19924;-67
2024/03/30 00:54:59;;;;;;;;;;;;;;;14.77;50.30;94718.66;4171941;28;20311;-65
2024/03/30 00:57:00;;;;;;;;;;;;;;;14.72;50.20;94712.09;4164754;28;19920;-69
2024/03/30 00:59:00;;;;;;;;;;;;;;;14.66;50.08;94715.47;4137888;28;21367;-66
2024/03/30 01:01:02;;;;;;;;;;;;;;;14.65;50.45;94716.47;4173469;28;19940;-67
2024/03/30 01:03:02;;;;;;;;;;;;;;;14.63;50.49;94710.56;4165218;28;19924;-67
2024/03/30 01:05:03;;;;;;;;;;;;;;;14.68;49.92;94713.47;4162473;28;19975;-66
2024/03/30 01:07:04;;;;;;;;;;;;;;;14.71;49.93;94710.47;4172514;28;20011;-67
2024/03/30 01:09:05;;;;;;;;;;;;;;;14.69;49.96;94712.47;4157660;28;20015;-67
2024/03/30 01:11:05;;;;;;;;;;;;;;;14.60;50.21;94704.84;4153561;28;20419;-67
2024/03/30 01:13:06;;;;;;;;;;;;;;;14.43;50.46;94702.38;4176164;28;19927;-66
2024/03/30 01:15:08;;;;;;;;;;;;;;;14.42;50.65;94700.72;4171493;28;19921;-66
2024/03/30 01:17:09;;;;;;;;;;;;;;;14.49;50.53;94708.72;4165031;28;19952;-66
2024/03/30 01:19:09;;;;;;;;;;;;;;;14.53;50.26;94702.09;4173675;28;19947;-65
2024/03/30 01:21:10;;;;;;;;;;;;;;;14.54;49.91;94694.00;4151030;28;19925;-66
2024/03/30 01:23:11;;;;;;;;;;;;;;;14.43;50.79;94698.91;4172153;28;20300;-64
2024/03/30 01:25:12;;;;;;;;;;;;;;;14.42;50.92;94702.56;4172781;28;19933;-68
2024/03/30 01:27:20;;;;;;;;;;;;;;;14.41;50.82;94709.66;4173318;28;19975;-66
2024/03/30 01:29:24;;;;;;;;;;;;;;;14.43;50.73;94698.91;4160199;28;20299;-66
2024/03/30 01:31:25;;;;;;;;;;;;;;;14.49;50.17;94700.81;4161968;28;19957;-67
2024/03/30 01:33:26;;;;;;;;;;;;;;;14.40;50.77;94696.66;4157095;28;20439;-66
2024/03/30 01:35:26;;;;;;;;;;;;;;;14.41;51.02;94709.66;4171594;28;19925;-67
2024/03/30 01:37:27;;;;;;;;;;;;;;;14.40;50.93;94708.00;4170593;28;20011;-65
2024/03/30 01:39:28;;;;;;;;;;;;;;;14.44;50.87;94703.19;4156912;28;19976;-66
2024/03/30 01:41:28;;;;;;;;;;;;;;;14.33;51.02;94705.28;4165304;28;19921;-68
2024/03/30 01:43:29;;;;;;;;;;;;;;;14.30;51.19;94707.44;4172898;28;20004;-67
2024/03/30 01:45:31;;;;;;;;;;;;;;;14.26;51.72;94712.28;4165610;28;19921;-67
2024/03/30 01:47:31;;;;;;;;;;;;;;;14.03;52.46;94703.63;4164000;28;19925;-66
2024/03/30 01:49:33;;;;;;;;;;;;;;;14.00;52.41;94701.34;4159470;28;19921;-67
2024/03/30 01:51:34;;;;;;;;;;;;;;;13.97;52.46;94705.16;4171574;28;19921;-65
2024/03/30 01:53:36;;;;;;;;;;;;;;;13.97;52.41;94705.16;4154180;28;19931;-66
2024/03/30 01:55:36;;;;;;;;;;;;;;;13.97;52.45;94699.09;4163314;28;19925;-64
2024/03/30 01:57:37;;;;;;;;;;;;;;;14.00;52.68;94696.88;4167675;28;19955;-67
2024/03/30 01:59:37;;;;;;;;;;;;;;;14.06;52.72;94690.91;4167468;28;19964;-67
2024/03/30 02:01:44;;;;;;;;;;;;;;;14.13;52.39;94696.25;4173513;28;19977;-66
2024/03/30 02:03:44;;;;;;;;;;;;;;;14.18;52.26;94698.38;4173454;28;20482;-67
2024/03/30 02:05:45;;;;;;;;;;;;;;;14.25;51.95;94701.91;4174988;28;19948;-65
2024/03/30 02:07:49;;;;;;;;;;;;;;;14.31;51.61;94702.00;4169111;28;19927;-67
2024/03/30 02:09:51;;;;;;;;;;;;;;;14.29;51.90;94701.38;4148833;28;19929;-67
2024/03/30 02:11:52;;;;;;;;;;;;;;;14.25;51.91;94702.72;4146785;28;19990;-68
2024/03/30 02:13:52;;;;;;;;;;;;;;;14.21;52.18;94709.34;4155474;28;19965;-65
2024/03/30 02:15:53;;;;;;;;;;;;;;;14.20;51.79;94707.75;4162355;28;20406;-66
2024/03/30 02:17:54;;;;;;;;;;;;;;;14.19;51.93;94706.09;4168768;28;19971;-65
2024/03/30 02:19:57;;;;;;;;;;;;;;;14.21;51.83;94700.66;4171160;28;19964;-66
2024/03/30 02:21:58;;;;;;;;;;;;;;;14.20;52.19;94701.66;4170649;28;19933;-66
2024/03/30 02:24:00;;;;;;;;;;;;;;;14.13;51.97;94701.53;4169694;28;19925;-65
2024/03/30 02:26:00;;;;;;;;;;;;;;;14.07;52.25;94697.81;4166534;28;19928;-66
2024/03/30 02:28:01;;;;;;;;;;;;;;;14.07;52.31;94697.81;4149370;28;20004;-67
2024/03/30 02:30:02;;;;;;;;;;;;;;;14.07;51.98;94707.56;4175043;28;20050;-67
2024/03/30 02:32:03;;;;;;;;;;;;;;;14.06;51.74;94709.34;4166789;28;19921;-66
2024/03/30 02:34:04;;;;;;;;;;;;;;;14.06;52.29;94705.91;4167247;28;19994;-66
2024/03/30 02:36:04;;;;;;;;;;;;;;;14.03;52.07;94714.97;4165562;28;19940;-66
2024/03/30 02:38:06;;;;;;;;;;;;;;;13.97;52.05;94717.53;4142632;28;19925;-66
2024/03/30 02:40:10;;;;;;;;;;;;;;;13.90;52.42;94722.69;4174028;28;19928;-69
2024/03/30 02:42:11;;;;;;;;;;;;;;;13.90;52.43;94714.78;4166289;28;19921;-68
2024/03/30 02:44:14;;;;;;;;;;;;;;;13.87;52.74;94721.22;4173715;28;20011;-65
2024/03/30 02:46:15;;;;;;;;;;;;;;;13.85;52.55;94720.59;4174224;28;20427;-66
2024/03/30 02:48:15;;;;;;;;;;;;;;;13.84;52.73;94723.41;4161151;28;20010;-65
2024/03/30 02:50:16;;;;;;;;;;;;;;;13.84;52.76;94721.56;4160173;28;20035;-65
2024/03/30 02:52:17;;;;;;;;;;;;;;;13.73;52.34;94722.00;4174564;28;20016;-64
2024/03/30 02:54:18;;;;;;;;;;;;;;;13.73;52.46;94722.81;4157297;28;20628;-64
2024/03/30 02:56:21;;;;;;;;;;;;;;;13.77;51.99;94720.66;4178169;28;19944;-65
2024/03/30 02:58:22;;;;;;;;;;;;;;;13.83;52.04;94716.47;4177617;28;19936;-65
2024/03/30 03:00:22;;;;;;;;;;;;;;;13.85;51.82;94714.50;4174185;28;20412;-65
2024/03/30 03:02:23;;;;;;;;;;;;;;;13.75;51.78;94714.75;4172902;28;19960;-64
2024/03/30 03:04:23;;;;;;;;;;;;;;;13.73;52.29;94716.75;4174807;28;19920;-64
2024/03/30 03:06:24;;;;;;;;;;;;;;;13.73;52.95;94716.75;4179739;28;19931;-65
2024/03/30 03:08:27;;;;;;;;;;;;;;;13.72;53.00;94713.31;4171614;28;19956;-66
2024/03/30 03:10:28;;;;;;;;;;;;;;;13.74;52.63;94710.47;4177397;28;20299;-66
2024/03/30 03:12:30;;;;;;;;;;;;;;;13.75;53.31;94714.75;4166509;28;19924;-67
2024/03/30 03:14:31;;;;;;;;;;;;;;;13.71;53.08;94710.84;4152730;28;19927;-66
2024/03/30 03:16:33;;;;;;;;;;;;;;;13.73;53.07;94714.13;4168537;28;19921;-65
2024/03/30 03:18:34;;;;;;;;;;;;;;;13.74;52.80;94710.47;4176619;28;19924;-67
2024/03/30 03:20:35;;;;;;;;;;;;;;;13.70;52.89;94703.91;4166442;28;19920;-66
2024/03/30 03:22:35;;;;;;;;;;;;;;;13.68;53.15;94709.38;4168584;28;19928;-66
2024/03/30 03:24:36;;;;;;;;;;;;;;;13.61;53.44;94718.97;4174576;28;19964;-66
2024/03/30 03:26:37;;;;;;;;;;;;;;;13.49;54.08;94709.88;4166629;28;19991;-67
2024/03/30 03:28:38;;;;;;;;;;;;;;;13.31;55.18;94707.53;4170488;28;19921;-65
2024/03/30 03:30:39;;;;;;;;;;;;;;;13.28;55.09;94713.13;4160438;28;19936;-66
2024/03/30 03:32:40;;;;;;;;;;;;;;;13.30;54.88;94705.91;4169497;28;20388;-65
2024/03/30 03:34:40;;;;;;;;;;;;;;;13.22;55.24;94704.09;4159929;28;19983;-66
2024/03/30 03:36:41;;;;;;;;;;;;;;;13.25;55.29;94718.72;4174370;28;19921;-67
2024/03/30 03:38:42;;;;;;;;;;;;;;;13.30;55.35;94714.59;4157299;28;19929;-65
2024/03/30 03:40:42;;;;;;;;;;;;;;;13.36;54.86;94712.25;4165758;28;19929;-64
2024/03/30 03:42:43;;;;;;;;;;;;;;;13.19;55.25;94708.91;4169102;28;19964;-66
2024/03/30 03:44:44;;;;;;;;;;;;;;;13.20;55.31;94713.97;4157808;28;19921;-64
2024/03/30 03:46:44;;;;;;;;;;;;;;;13.29;55.36;94720.88;4170892;28;21060;-66
2024/03/30 03:48:45;;;;;;;;;;;;;;;13.36;55.23;94714.88;4172370;28;19920;-66
2024/03/30 03:50:45;;;;;;;;;;;;;;;13.41;55.32;94710.75;4172689;28;19925;-67
2024/03/30 03:52:46;;;;;;;;;;;;;;;13.44;55.23;94713.03;4175822;28;19994;-68
2024/03/30 03:54:47;;;;;;;;;;;;;;;13.45;55.28;94713.84;4176089;28;20156;-67
2024/03/30 03:56:47;;;;;;;;;;;;;;;13.46;55.34;94711.03;4168520;28;20334;-67
2024/03/30 03:58:48;;;;;;;;;;;;;;;13.44;55.08;94717.47;4151224;28;20330;-67
2024/03/30 04:00:48;;;;;;;;;;;;;;;13.43;55.27;94716.66;4172787;28;20010;-68
2024/03/30 04:02:49;;;;;;;;;;;;;;;13.46;55.40;94724.19;4169939;28;20378;-67
2024/03/30 04:04:50;;;;;;;;;;;;;;;13.49;54.98;94721.22;4169796;28;19971;-66
2024/03/30 04:06:50;;;;;;;;;;;;;;;13.53;55.27;94721.69;4172088;28;20284;-66
2024/03/30 04:08:51;;;;;;;;;;;;;;;13.45;55.07;94724.38;4161330;28;19928;-65
2024/03/30 04:10:59;;;;;;;;;;;;;;;13.39;55.06;94723.25;4147293;28;19952;-68
2024/03/30 04:13:00;;;;;;;;;;;;;;;13.37;55.82;94722.59;4187158;28;20335;-64
2024/03/30 04:15:00;;;;;;;;;;;;;;;13.27;55.81;94727.25;4176100;28;20026;-67
2024/03/30 04:17:01;;;;;;;;;;;;;;;13.03;56.15;94731.66;4164705;28;20276;-66
2024/03/30 04:19:02;;;;;;;;;;;;;;;13.03;56.32;94733.47;4163960;28;20059;-65
2024/03/30 04:21:03;;;;;;;;;;;;;;;13.07;56.16;94737.41;4163223;28;19921;-65
2024/03/30 04:23:03;;;;;;;;;;;;;;;12.99;56.30;94729.56;4173162;28;19971;-65
2024/03/30 04:25:04;;;;;;;;;;;;;;;13.06;56.37;94735.78;4165623;28;19921;-65
2024/03/30 04:27:05;;;;;;;;;;;;;;;13.11;56.26;94726.38;4168647;28;19930;-64
2024/03/30 04:29:06;;;;;;;;;;;;;;;13.21;56.00;94727.97;4166114;28;19964;-65
2024/03/30 04:31:06;;;;;;;;;;;;;;;13.27;56.27;94724.63;4175932;28;20372;-65
2024/03/30 04:33:07;;;;;;;;;;;;;;;13.28;55.97;94724.47;4174928;28;20380;-65
2024/03/30 04:35:08;;;;;;;;;;;;;;;13.33;55.54;94723.94;4172922;28;20027;-65
2024/03/30 04:37:08;;;;;;;;;;;;;;;13.40;54.82;94724.91;4168351;28;20565;-65
2024/03/30 04:39:09;;;;;;;;;;;;;;;13.20;55.18;94727.13;4166160;28;20403;-66
2024/03/30 04:41:10;;;;;;;;;;;;;;;12.88;55.63;94731.59;4176421;28;19924;-64
2024/03/30 04:43:11;;;;;;;;;;;;;;;12.52;56.94;94726.03;4151983;28;19937;-66
2024/03/30 04:45:11;;;;;;;;;;;;;;;12.28;57.90;94726.91;4175551;28;19927;-66
2024/03/30 04:47:12;;;;;;;;;;;;;;;12.30;58.14;94724.91;4171309;28;19931;-65
2024/03/30 04:49:12;;;;;;;;;;;;;;;12.34;57.62;94726.22;4163719;28;20384;-67
2024/03/30 04:51:13;;;;;;;;;;;;;;;12.46;57.48;94717.00;4173424;28;19932;-68
2024/03/30 04:53:18;;;;;;;;;;;;;;;12.39;57.35;94721.31;4173034;28;20312;-69
2024/03/30 04:55:18;;;;;;;;;;;;;;;12.21;58.18;94720.69;4137762;28;20390;-66
2024/03/30 04:57:19;;;;;;;;;;;;;;;12.25;58.07;94733.31;4177019;28;20004;-65
2024/03/30 04:59:19;;;;;;;;;;;;;;;12.27;57.88;94725.28;4176718;28;19960;-65
2024/03/30 05:01:20;;;;;;;;;;;;;;;12.35;57.75;94732.31;4164164;28;19951;-69
2024/03/30 05:03:22;;;;;;;;;;;;;;;12.37;58.16;94735.56;4170536;28;19924;-67
2024/03/30 05:05:22;;;;;;;;;;;;;;;12.53;57.75;94748.66;4168080;28;20411;-68
2024/03/30 05:07:23;;;;;;;;;;;;;;;12.73;57.01;94741.19;4173405;28;19929;-65
2024/03/30 05:09:23;;;;;;;;;;;;;;;12.89;56.50;94729.78;4165789;28;20382;-69
2024/03/30 05:11:24;;;;;;;;;;;;;;;13.00;56.37;94742.53;4177388;28;19966;-68
2024/03/30 05:13:25;;;;;;;;;;;;;;;13.09;55.93;94746.75;4171705;28;19929;-70
2024/03/30 05:15:26;;;;;;;;;;;;;;;13.13;55.41;94739.34;4173259;28;20015;-69
2024/03/30 05:17:26;;;;;;;;;;;;;;;13.24;55.47;94743.41;4175250;28;20295;-67
2024/03/30 05:21:46;;;;;;;;;;;;;;;13.26;55.23;94744.03;4168655;28;19921;-68
2024/03/30 05:23:47;;;;;;;;;;;;;;;13.42;55.44;94741.34;4171914;28;19927;-69
2024/03/30 05:25:47;;;;;;;;;;;;;;;13.55;55.06;94750.44;4168472;28;19963;-69
2024/03/30 05:27:48;;;;;;;;;;;;;;;13.64;54.16;94752.03;4166390;28;20526;-68
2024/03/30 05:29:49;;;;;;;;;;;;;;;13.69;53.83;94753.13;4174961;28;20346;-67
2024/03/30 05:31:53;;;;;;;;;;;;;;;13.78;53.74;94756.50;4175290;28;20344;-66
2024/03/30 05:33:53;;;;;;;;;;;;;;;13.88;53.52;94748.38;4175373;28;20279;-67
2024/03/30 05:35:59;;;;;;;;;;;;;;;14.02;53.20;94758.09;4170424;28;19946;-65
2024/03/30 05:38:21;;;;;;;;;;;;;;;13.96;52.55;94752.75;4167801;28;19924;-68
2024/03/30 05:40:31;;;;;;;;;;;;;;;13.99;52.92;94747.13;4173992;28;19940;-66
2024/03/30 05:42:35;;;;;;;;;;;;;;;14.12;52.87;94745.50;4172883;28;20576;-66
2024/03/30 05:44:36;;;;;;;;;;;;;;;14.30;52.88;94745.19;4163727;28;19935;-67
2024/03/30 05:46:36;;;;;;;;;;;;;;;14.41;52.58;94748.34;4173035;28;20594;-65
2024/03/30 05:48:37;;;;;;;;;;;;;;;14.53;52.61;94744.25;4172011;28;20420;-68
2024/03/30 05:50:38;;;;;;;;;;;;;;;14.56;52.39;94746.56;4172699;28;19925;-70
2024/03/30 05:52:39;;;;;;;;;;;;;;;14.61;52.45;94748.66;4172200;28;19920;-69
2024/03/30 05:54:40;;;;;;;;;;;;;;;14.65;52.32;94737.56;4167612;28;19983;-70
2024/03/30 05:56:40;;;;;;;;;;;;;;;14.80;52.55;94736.72;4155118;28;20479;-68
2024/03/30 05:58:41;;;;;;;;;;;;;;;14.89;52.37;94747.00;4166817;28;19964;-66
2024/03/30 06:00:42;;;;;;;;;;;;;;;14.97;52.80;94746.09;4165924;28;19959;-68
2024/03/30 06:02:43;;;;;;;;;;;;;;;14.98;52.81;94755.63;4169899;28;19925;-66
2024/03/30 06:04:44;;;;;;;;;;;;;;;15.03;52.69;94739.25;4154526;28;20388;-69
2024/03/30 06:06:45;;;;;;;;;;;;;;;15.13;52.23;94739.75;4173570;28;19963;-68
2024/03/30 06:08:45;;;;;;;;;;;;;;;15.19;51.73;94744.31;4165092;28;20011;-67
2024/03/30 06:10:46;;;;;;;;;;;;;;;15.24;51.67;94747.19;4174057;28;19985;-66
2024/03/30 06:12:47;;;;;;;;;;;;;;;15.34;51.39;94746.91;4174687;28;20368;-66
2024/03/30 06:14:48;;;;;;;;;;;;;;;15.39;50.94;94744.50;4169530;28;19978;-68
2024/03/30 06:16:49;;;;;;;;;;;;;;;15.47;50.76;94741.75;4174826;28;20120;-67
2024/03/30 06:18:49;;;;;;;;;;;;;;;15.49;50.37;94739.75;4170344;28;19925;-68
2024/03/30 06:20:50;;;;;;;;;;;;;;;15.48;50.46;94742.56;4160810;28;19921;-68
2024/03/30 06:22:51;;;;;;;;;;;;;;;15.51;50.48;94734.28;4170848;28;20280;-69
2024/03/30 06:24:52;;;;;;;;;;;;;;;15.57;50.69;94742.25;4158992;28;19936;-67
2024/03/30 06:26:53;;;;;;;;;;;;;;;15.66;50.30;94748.22;4169089;28;20015;-67
2024/03/30 06:28:53;;;;;;;;;;;;;;;15.68;49.83;94737.47;4171480;28;19957;-67
2024/03/30 06:30:55;;;;;;;;;;;;;;;15.71;49.53;94747.66;4165942;28;19928;-67
2024/03/30 06:32:55;;;;;;;;;;;;;;;15.80;49.45;94746.53;4177573;28;19921;-69
2024/03/30 06:34:56;;;;;;;;;;;;;;;15.86;49.23;94740.50;4150103;28;19925;-68
2024/03/30 06:36:56;;;;;;;;;;;;;;;15.94;48.94;94736.94;4176664;28;19924;-68
2024/03/30 06:38:57;;;;;;;;;;;;;;;16.05;48.68;94738.22;4175547;28;19921;-69
2024/03/30 06:45:36;;;;;;;;;;;;;;;16.26;48.27;94746.09;4165814;28;20368;-67
2024/03/30 06:47:37;;;;;;;;;;;;;;;16.11;48.46;94743.56;4164875;28;19971;-68
2024/03/30 06:49:38;;;;;;;;;;;;;;;16.19;48.38;94747.88;4165846;28;19982;-68
2024/03/30 06:51:39;;;;;;;;;;;;;;;16.12;48.42;94754.94;4173437;28;20392;-67
2024/03/30 06:53:40;;;;;;;;;;;;;;;16.00;48.56;94748.53;4164411;28;19948;-67
2024/03/30 06:55:40;;;;;;;;;;;;;;;15.93;48.40;94751.13;4166079;28;19921;-67
2024/03/30 06:57:41;;;;;;;;;;;;;;;15.92;48.42;94750.31;4169582;28;20289;-68
2024/03/30 06:59:41;;;;;;;;;;;;;;;16.08;48.46;94743.13;4172590;28;20019;-68
2024/03/30 07:01:42;;;;;;;;;;;;;;;16.25;48.15;94746.28;4169407;28;19931;-67
2024/03/30 07:03:43;;;;;;;;;;;;;;;16.46;48.32;94742.78;4178067;28;19924;-67
2024/03/30 07:05:44;;;;;;;;;;;;;;;16.68;48.66;94739.03;4175027;28;19959;-70
2024/03/30 07:07:45;;;;;;;;;;;;;;;16.74;46.81;94737.44;4175557;28;20330;-68
2024/03/30 07:09:45;;;;;;;;;;;;;;;16.73;46.71;94747.19;4167682;28;20007;-67
2024/03/30 07:11:46;;;;;;;;;;;;;;;16.84;46.50;94745.03;4168602;28;19920;-67
2024/03/30 07:13:47;;;;;;;;;;;;;;;16.97;45.91;94750.38;4176627;28;19936;-67
2024/03/30 07:15:47;;;;;;;;;;;;;;;16.78;46.00;94747.44;4167264;28;19921;-69
2024/03/30 07:17:48;;;;;;;;;;;;;;;16.74;46.04;94761.25;4171417;28;20439;-69
2024/03/30 07:19:49;;;;;;;;;;;;;;;16.86;46.06;94759.69;4170951;28;19967;-64
2024/03/30 07:21:49;;;;;;;;;;;;;;;17.06;45.68;94751.84;4174574;28;20049;-65
2024/03/30 07:23:50;;;;;;;;;;;;;;;17.03;45.45;94754.88;4168529;28;19929;-67
2024/03/30 07:25:51;;;;;;;;;;;;;;;16.93;45.67;94757.09;4156517;28;20003;-66
2024/03/30 07:27:51;;;;;;;;;;;;;;;17.10;45.78;94763.69;4173094;28;20370;-68
2024/03/30 07:29:53;;;;;;;;;;;;;;;17.22;45.21;94758.63;4173682;28;20036;-68
2024/03/30 07:31:56;;;;;;;;;;;;;;;17.42;45.12;94771.09;4165119;28;20115;-67
2024/03/30 07:33:56;;;;;;;;;;;;;;;17.60;44.41;94764.22;4173042;28;20330;-67
2024/03/30 07:35:57;;;;;;;;;;;;;;;17.43;44.24;94770.09;4168425;28;19921;-67
2024/03/30 07:37:58;;;;;;;;;;;;;;;17.29;44.48;94762.09;4163593;28;20024;-69
2024/03/30 07:39:59;;;;;;;;;;;;;;;17.15;44.87;94763.09;4163849;28;19928;-69
2024/03/30 07:41:59;;;;;;;;;;;;;;;17.43;44.57;94762.97;4170507;28;20004;-69
2024/03/30 07:44:00;;;;;;;;;;;;;;;17.61;44.06;94760.56;4166716;28;19979;-68
2024/03/30 07:46:01;;;;;;;;;;;;;;;17.86;44.20;94756.56;4168760;28;20176;-68
2024/03/30 07:48:02;;;;;;;;;;;;;;;18.04;43.36;94748.81;4166471;28;20003;-66
2024/03/30 07:50:04;;;;;;;;;;;;;;;17.89;43.30;94754.31;4177644;28;19921;-70
2024/03/30 07:52:05;;;;;;;;;;;;;;;17.91;43.55;94746.97;4173098;28;19929;-66
2024/03/30 07:54:05;;;;;;;;;;;;;;;18.13;43.35;94749.41;4169340;28;20619;-69
2024/03/30 07:56:06;;;;;;;;;;;;;;;18.34;43.14;94754.50;4173419;28;19935;-67
2024/03/30 07:58:07;;;;;;;;;;;;;;;18.56;43.05;94751.59;4176334;28;19925;-69
2024/03/30 08:00:07;;;;;;;;;;;;;;;18.70;42.24;94747.91;4167306;28;19921;-68
2024/03/30 08:02:09;;;;;;;;;;;;;;;18.73;41.61;94744.84;4169747;28;19929;-68
2024/03/30 08:04:10;;;;;;;;;;;;;;;18.60;41.89;94747.53;4170284;28;20434;-68
2024/03/30 08:06:11;;;;;;;;;;;;;;;18.19;42.80;94744.09;4170659;28;19920;-67
2024/03/30 08:08:12;;;;;;;;;;;;;;;18.36;42.77;94741.84;4171953;28;20413;-67
2024/03/30 08:10:12;;;;;;;;;;;;;;;18.27;42.65;94742.28;4173651;28;19921;-68
2024/03/30 08:12:13;;;;;;;;;;;;;;;18.36;42.50;94747.16;4157643;28;19944;-68
2024/03/30 08:14:13;;;;;;;;;;;;;;;18.36;42.69;94749.81;4171668;28;19925;-69
2024/03/30 08:16:14;;;;;;;;;;;;;;;18.48;42.60;94741.25;4169894;28;20411;-68
2024/03/30 08:18:15;;;;;;;;;;;;;;;18.71;42.30;94746.88;4161705;28;19925;-66
2024/03/30 08:20:15;;;;;;;;;;;;;;;18.90;41.96;94752.38;4174323;28;19925;-69
2024/03/30 08:22:16;;;;;;;;;;;;;;;18.54;42.06;94743.03;4171761;28;19920;-68
2024/03/30 08:24:16;;;;;;;;;;;;;;;18.39;42.45;94740.63;4172466;28;19928;-70
2024/03/30 08:26:17;;;;;;;;;;;;;;;18.51;42.58;94740.81;4165967;28;20375;-67
2024/03/30 08:28:18;;;;;;;;;;;;;;;18.76;42.39;94741.78;4171876;28;20333;-69
2024/03/30 08:30:18;;;;;;;;;;;;;;;18.82;41.82;94740.97;4167511;28;20007;-68
2024/03/30 08:32:19;;;;;;;;;;;;;;;18.71;41.96;94736.25;4177721;28;20245;-68
2024/03/30 08:34:19;;;;;;;;;;;;;;;18.56;41.83;94735.69;4166476;28;20360;-69
2024/03/30 08:36:20;;;;;;;;;;;;;;;18.77;42.08;94735.44;4159419;28;20146;-70
2024/03/30 08:38:20;;;;;;;;;;;;;;;19.03;41.51;94736.41;4158882;28;19928;-68
2024/03/30 08:40:21;;;;;;;;;;;;;;;19.19;41.03;94732.47;4159964;28;19921;-67
2024/03/30 08:42:21;;;;;;;;;;;;;;;19.15;41.04;94728.59;4173283;28;20462;-70
2024/03/30 08:44:23;;;;;;;;;;;;;;;19.19;41.22;94729.81;4165281;28;19920;-70
2024/03/30 08:46:24;;;;;;;;;;;;;;;19.31;40.74;94721.97;4171649;28;19921;-72
2024/03/30 08:48:24;;;;;;;;;;;;;;;19.12;41.11;94729.84;4156415;28;19922;-67
2024/03/30 08:50:25;;;;;;;;;;;;;;;19.30;40.86;94718.50;4173934;28;19927;-68
2024/03/30 08:52:27;;;;;;;;;;;;;;;19.49;40.50;94714.13;4175972;28;20468;-68
2024/03/30 08:54:27;;;;;;;;;;;;;;;19.77;39.85;94716.41;4169496;28;19928;-69
2024/03/30 08:56:29;;;;;;;;;;;;;;;19.90;39.68;94704.06;4172361;28;19964;-68
2024/03/30 08:58:30;;;;;;;;;;;;;;;20.01;39.33;94709.47;4169056;28;19975;-69
2024/03/30 09:00:31;;;;;;;;;;;;;;;20.09;39.10;94704.91;4157654;28;20048;-69
2024/03/30 09:02:32;;;;;;;;;;;;;;;20.08;38.96;94703.28;4171562;28;20323;-69
2024/03/30 09:04:33;;;;;;;;;;;;;;;19.83;38.85;94694.28;4168424;28;19928;-69
2024/03/30 09:06:34;;;;;;;;;;;;;;;19.82;39.10;94694.50;4175092;28;20027;-69
2024/03/30 09:08:34;;;;;;;;;;;;;;;19.94;38.71;94692.78;4174257;28;19968;-71
2024/03/30 09:10:35;;;;;;;;;;;;;;;20.18;38.32;94683.16;4160130;28;20303;-68
2024/03/30 09:12:35;;;;;;;;;;;;;;;20.22;38.14;94683.53;4166231;28;19932;-67
2024/03/30 09:14:36;;;;;;;;;;;;;;;20.19;37.90;94683.97;4168825;28;19976;-66
2024/03/30 09:16:37;;;;;;;;;;;;;;;20.04;37.89;94679.78;4169330;28;20388;-70
2024/03/30 09:18:37;;;;;;;;;;;;;;;20.18;38.08;94682.34;4172823;28;20383;-69
2024/03/30 09:20:38;;;;;;;;;;;;;;;20.40;37.92;94686.19;4176029;28;20450;-70
2024/03/30 09:22:38;;;;;;;;;;;;;;;20.51;37.58;94682.00;4169731;28;20288;-67
2024/03/30 09:24:39;;;;;;;;;;;;;;;20.42;37.45;94675.34;4167090;28;19929;-68
2024/03/30 09:26:40;;;;;;;;;;;;;;;20.50;37.30;94671.56;4174778;28;19937;-69
2024/03/30 09:28:40;;;;;;;;;;;;;;;20.74;37.22;94672.59;4153483;28;19922;-68
2024/03/30 09:30:41;;;;;;;;;;;;;;;20.81;37.18;94673.31;4174433;28;19983;-70
2024/03/30 09:32:44;;;;;;;;;;;;;;;20.83;36.55;94674.72;4174592;28;19924;-69
2024/03/30 09:34:44;;;;;;;;;;;;;;;20.95;36.89;94658.81;4168110;28;19963;-71
2024/03/30 09:36:45;;;;;;;;;;;;;;;21.19;36.39;94662.38;4169812;28;20003;-69
2024/03/30 09:38:45;;;;;;;;;;;;;;;21.20;36.35;94660.53;4174224;28;19967;-71
2024/03/30 09:40:47;;;;;;;;;;;;;;;21.09;36.44;94670.09;4167293;28;19991;-67
2024/03/30 09:42:49;;;;;;;;;;;;;;;21.17;36.36;94659.13;4156553;28;20604;-70
2024/03/30 09:44:50;;;;;;;;;;;;;;;21.25;35.93;94658.81;4152452;28;19921;-69
2024/03/30 09:46:51;;;;;;;;;;;;;;;21.22;36.31;94653.91;4171166;28;20445;-68
2024/03/30 09:48:51;;;;;;;;;;;;;;;21.26;36.12;94652.44;4172154;28;20044;-69
2024/03/30 09:50:53;;;;;;;;;;;;;;;21.42;36.00;94644.84;4165076;28;19933;-69
2024/03/30 09:52:54;;;;;;;;;;;;;;;21.20;36.07;94641.88;4165872;28;20288;-68
2024/03/30 09:54:56;;;;;;;;;;;;;;;21.28;36.16;94637.03;4169153;28;19921;-68
2024/03/30 09:56:56;;;;;;;;;;;;;;;21.35;36.08;94636.13;4155704;28;19921;-69
2024/03/30 09:58:58;;;;;;;;;;;;;;;21.45;36.04;94634.56;4159016;28;20442;-70
2024/03/30 10:00:59;;;;;;;;;;;;;;;21.56;35.90;94634.81;4166639;28;20361;-69
2024/03/30 10:03:00;;;;;;;;;;;;;;;21.57;36.04;94634.56;4168400;28;20153;-68
2024/03/30 10:05:00;;;;;;;;;;;;;;;21.51;35.96;94629.34;4159866;28;19927;-66
2024/03/30 10:07:01;;;;;;;;;;;;;;;21.51;36.05;94619.53;4169431;28;20004;-69
2024/03/30 10:09:02;;;;;;;;;;;;;;;21.31;35.78;94619.78;4168891;28;20399;-72
2024/03/30 10:11:05;;;;;;;;;;;;;;;21.57;34.76;94623.91;4168764;28;19987;-69
2024/03/30 10:13:07;;;;;;;;;;;;;;;21.83;34.29;94619.19;4172580;28;19925;-69
2024/03/30 10:15:08;;;;;;;;;;;;;;;22.15;34.00;94618.84;4152049;28;19925;-70
2024/03/30 10:17:09;;;;;;;;;;;;;;;22.43;33.61;94610.97;4156354;28;20316;-69
2024/03/30 10:19:11;;;;;;;;;;;;;;;22.65;33.92;94616.50;4155237;28;19926;-71
2024/03/30 10:21:11;;;;;;;;;;;;;;;22.77;33.77;94612.97;4168169;28;20396;-69
2024/03/30 10:23:12;;;;;;;;;;;;;;;22.61;34.05;94606.53;4169404;28;19925;-71
2024/03/30 10:25:13;;;;;;;;;;;;;;;22.58;34.10;94607.00;4151964;28;19964;-70
2024/03/30 10:27:13;;;;;;;;;;;;;;;22.58;33.57;94605.13;4169280;28;19921;-70
2024/03/30 10:29:14;;;;;;;;;;;;;;;22.58;33.40;94604.31;4164887;28;19924;-71
2024/03/30 10:31:15;;;;;;;;;;;;;;;22.77;33.36;94597.75;4174404;28;19927;-70
2024/03/30 10:33:19;;;;;;;;;;;;;;;22.91;32.47;94590.31;4160452;28;20007;-70
2024/03/30 10:35:21;;;;;;;;;;;;;;;22.80;32.13;94588.47;4171053;28;19924;-67
2024/03/30 10:37:27;;;;;;;;;;;;;;;22.81;31.70;94587.44;4170594;28;19925;-70